Time;durP1;ratioP1;P1;durP2;ratioP2;P2;SDS_P1;SDS_P2;PMS_P1;PMS_P2;Temp;Humidity;BMP_temperature;BMP_pressure;BME280_temperature;BME280_humidity;BME280_pressure;Samples;Min_cycle;Max_cycle;Signal;HPM_P1;HPM_P2
2023/01/31 00:00:52;;;;;;;23.25;4.30;;;4.10;99.90;;;;;;4998737;28;20046;-78
2023/01/31 00:03:18;;;;;;;27.02;5.18;;;4.10;99.90;;;;;;4991434;28;20124;-78
2023/01/31 00:05:44;;;;;;;20.83;4.22;;;4.10;99.90;;;;;;4978274;28;20057;-77
2023/01/31 00:08:11;;;;;;;25.75;5.45;;;4.00;99.90;;;;;;5006527;28;20049;-78
2023/01/31 00:10:37;;;;;;;28.95;5.57;;;4.00;99.90;;;;;;4984868;28;20037;-78
2023/01/31 00:13:02;;;;;;;24.95;4.78;;;3.90;99.90;;;;;;5013222;28;20053;-78
2023/01/31 00:15:28;;;;;;;26.08;5.10;;;3.90;99.90;;;;;;4981533;28;20045;-77
2023/01/31 00:17:54;;;;;;;18.55;4.03;;;4.00;99.90;;;;;;5014130;28;20041;-77
2023/01/31 00:20:20;;;;;;;25.85;5.20;;;3.90;99.90;;;;;;4981240;28;20108;-78
2023/01/31 00:22:46;;;;;;;25.08;4.97;;;3.90;99.90;;;;;;5006976;28;20037;-78
2023/01/31 00:25:11;;;;;;;24.05;4.80;;;3.90;99.90;;;;;;4965902;28;20382;-78
2023/01/31 00:27:37;;;;;;;22.90;4.75;;;3.90;99.90;;;;;;5020467;28;20508;-78
2023/01/31 00:30:04;;;;;;;18.23;4.57;;;4.00;99.90;;;;;;4988520;28;20041;-78
2023/01/31 00:32:29;;;;;;;21.23;4.53;;;3.90;99.90;;;;;;5005725;28;20561;-78
2023/01/31 00:34:55;;;;;;;20.23;4.00;;;3.90;99.90;;;;;;4983422;28;20049;-78
2023/01/31 00:37:21;;;;;;;21.85;4.53;;;3.90;99.90;;;;;;4994439;28;20137;-78
2023/01/31 00:39:47;;;;;;;22.35;4.78;;;3.80;99.90;;;;;;5007814;28;20038;-78
2023/01/31 00:42:13;;;;;;;22.95;4.70;;;3.70;99.90;;;;;;4986857;28;20081;-79
2023/01/31 00:44:39;;;;;;;18.92;4.15;;;3.70;99.90;;;;;;4992892;28;20044;-79
2023/01/31 00:47:04;;;;;;;28.35;4.90;;;3.70;99.90;;;;;;4995026;28;20045;-79
2023/01/31 00:49:30;;;;;;;19.45;3.92;;;3.70;99.90;;;;;;4998345;28;20041;-79
2023/01/31 00:51:56;;;;;;;23.38;4.88;;;3.70;99.90;;;;;;5003260;28;20053;-79
2023/01/31 00:54:22;;;;;;;23.25;4.50;;;3.60;99.90;;;;;;5000902;28;20528;-79
2023/01/31 00:56:50;;;;;;;22.48;4.60;;;3.60;99.90;;;;;;5008763;28;20049;-78
2023/01/31 00:59:16;;;;;;;26.35;4.35;;;3.60;99.90;;;;;;5004039;28;20055;-78
2023/01/31 01:01:42;;;;;;;21.35;4.35;;;3.60;99.90;;;;;;5023186;28;20134;-79
2023/01/31 01:04:08;;;;;;;20.73;4.20;;;3.50;99.90;;;;;;5003907;28;20056;-78
2023/01/31 01:06:33;;;;;;;21.83;4.13;;;3.50;99.90;;;;;;5004192;28;20041;-69
2023/01/31 01:08:59;;;;;;;18.13;3.47;;;3.50;99.90;;;;;;5022709;28;20107;-69
2023/01/31 01:11:31;;;;;;;21.63;3.92;;;3.50;99.90;;;;;;5015585;28;20056;-69
2023/01/31 01:13:59;;;;;;;25.80;5.05;;;3.50;99.90;;;;;;5001858;28;20053;-69
2023/01/31 01:16:32;;;;;;;25.63;4.75;;;3.40;99.90;;;;;;5005718;28;20056;-69
2023/01/31 01:19:00;;;;;;;20.25;3.38;;;3.40;99.90;;;;;;5016461;28;20048;-69
2023/01/31 01:21:28;;;;;;;25.27;4.95;;;3.30;99.90;;;;;;5021108;28;20055;-69
2023/01/31 01:24:00;;;;;;;18.58;4.07;;;3.20;99.90;;;;;;5005905;28;20041;-69
2023/01/31 01:26:28;;;;;;;20.05;4.63;;;3.30;99.90;;;;;;5002475;28;20057;-69
2023/01/31 01:28:56;;;;;;;21.02;4.10;;;3.30;99.90;;;;;;5022806;28;20052;-69
2023/01/31 01:31:28;;;;;;;20.77;4.65;;;3.30;99.90;;;;;;5020428;28;20716;-70
2023/01/31 01:33:57;;;;;;;19.25;3.92;;;3.30;99.90;;;;;;4992775;28;20135;-70
2023/01/31 01:36:23;;;;;;;23.38;4.03;;;3.30;99.90;;;;;;5007615;28;20041;-70
2023/01/31 01:38:49;;;;;;;21.70;4.03;;;3.40;99.90;;;;;;5005367;28;20763;-69
2023/01/31 01:41:15;;;;;;;19.33;3.45;;;3.30;99.90;;;;;;4998391;28;20041;-70
2023/01/31 01:43:50;;;;;;;23.48;4.38;;;3.30;99.90;;;;;;4987782;28;20053;-70
2023/01/31 01:46:24;;;;;;;21.92;3.97;;;3.30;99.90;;;;;;5021083;28;20136;-70
2023/01/31 01:49:04;;;;;;;23.92;3.88;;;3.30;99.90;;;;;;5001316;28;20053;-79
2023/01/31 01:51:32;;;;;;;20.73;5.00;;;3.30;99.90;;;;;;4999118;28;20085;-78
2023/01/31 01:54:03;;;;;;;22.58;4.28;;;3.30;99.90;;;;;;5007438;28;20056;-79
2023/01/31 01:56:36;;;;;;;21.60;4.30;;;3.40;99.90;;;;;;5022316;28;20056;-78
2023/01/31 01:59:15;;;;;;;20.83;4.75;;;3.30;99.90;;;;;;5021053;28;20071;-78
2023/01/31 02:01:41;;;;;;;21.38;4.22;;;3.20;99.90;;;;;;5021076;28;20041;-78
2023/01/31 02:04:14;;;;;;;19.05;4.18;;;3.20;99.90;;;;;;5018883;28;20052;-78
2023/01/31 02:06:40;;;;;;;22.95;4.05;;;3.10;99.90;;;;;;5022106;28;20057;-78
2023/01/31 02:09:12;;;;;;;16.92;4.07;;;3.10;99.90;;;;;;5005733;28;20073;-78
2023/01/31 02:11:37;;;;;;;21.88;4.45;;;3.10;99.90;;;;;;5003924;28;20511;-79
2023/01/31 02:14:08;;;;;;;17.77;3.88;;;3.00;99.90;;;;;;5004297;28;20045;-78
2023/01/31 02:16:35;;;;;;;20.23;3.67;;;3.00;99.90;;;;;;5017222;28;20076;-78
2023/01/31 02:19:01;;;;;;;19.55;4.63;;;2.90;99.90;;;;;;5019190;28;20060;-78
2023/01/31 02:22:05;;;;;;;19.67;4.15;;;2.90;99.90;;;;;;5017125;28;21022;-79
2023/01/31 02:24:37;;;;;;;23.63;3.70;;;2.80;99.90;;;;;;5003566;28;20396;-78
2023/01/31 02:27:32;;;;;;;17.67;3.80;;;2.80;99.90;;;;;;5004092;28;20053;-79
2023/01/31 02:30:44;;;;;;;24.65;4.65;;;2.80;99.90;;;;;;5003972;28;21483;-78
2023/01/31 02:33:18;;;;;;;22.27;3.50;;;2.80;99.90;;;;;;5019122;28;20071;-78
2023/01/31 02:36:09;;;;;;;18.02;3.30;;;2.90;99.90;;;;;;5020061;28;20075;-78
2023/01/31 02:38:55;;;;;;;23.33;4.47;;;2.90;99.90;;;;;;5004242;28;20045;-78
2023/01/31 02:41:23;;;;;;;17.75;4.03;;;3.00;99.90;;;;;;5005089;28;20183;-78
2023/01/31 02:46:58;;;;;;;19.02;3.72;;;3.10;99.90;;;;;;5019307;28;20052;-79
2023/01/31 02:49:33;;;;;;;19.42;4.05;;;3.20;99.90;;;;;;5016715;28;20151;-78
2023/01/31 02:52:18;;;;;;;17.95;4.00;;;3.20;99.90;;;;;;5020997;28;20048;-80
2023/01/31 02:57:57;;;;;;;23.33;4.05;;;3.30;99.90;;;;;;5023040;28;20045;-79
2023/01/31 03:00:28;;;;;;;14.73;3.03;;;3.40;99.90;;;;;;5000315;28;20052;-79
2023/01/31 03:02:55;;;;;;;19.45;3.65;;;3.40;99.90;;;;;;5004760;28;20053;-79
2023/01/31 03:05:21;;;;;;;19.52;3.80;;;3.60;99.90;;;;;;5009001;28;20539;-79
2023/01/31 03:07:56;;;;;;;21.42;4.00;;;3.50;99.90;;;;;;5020948;28;20041;-79
2023/01/31 03:10:58;;;;;;;20.60;3.92;;;3.50;99.90;;;;;;5019584;28;20045;-79
2023/01/31 03:13:43;;;;;;;19.33;3.63;;;3.50;99.90;;;;;;5016386;28;20103;-78
2023/01/31 03:19:23;;;;;;;19.90;4.18;;;3.50;99.90;;;;;;5012941;28;20049;-78
2023/01/31 03:22:02;;;;;;;17.15;3.20;;;3.60;99.90;;;;;;5029306;28;20500;-79
2023/01/31 03:24:29;;;;;;;20.33;4.03;;;3.70;99.90;;;;;;5014033;28;20037;-79
2023/01/31 03:26:57;;;;;;;16.65;3.65;;;3.70;99.90;;;;;;5024550;28;20080;-78
2023/01/31 03:29:26;;;;;;;22.52;3.88;;;3.70;99.90;;;;;;5011542;28;20404;-79
2023/01/31 03:31:57;;;;;;;21.05;4.38;;;3.80;99.90;;;;;;5000244;28;20044;-78
2023/01/31 03:34:24;;;;;;;18.90;4.10;;;3.80;99.90;;;;;;5014686;28;20565;-78
2023/01/31 03:37:02;;;;;;;20.17;3.72;;;3.90;99.90;;;;;;5013659;28;20570;-79
2023/01/31 03:39:53;;;;;;;23.73;3.67;;;3.90;99.90;;;;;;5010710;28;20132;-78
2023/01/31 03:42:33;;;;;;;20.75;3.65;;;4.00;99.90;;;;;;5008179;28;20576;-78
2023/01/31 03:45:11;;;;;;;22.70;4.67;;;4.00;99.90;;;;;;5019876;28;20440;-79
2023/01/31 03:47:47;;;;;;;22.55;4.35;;;4.00;99.90;;;;;;5023979;28;20283;-79
2023/01/31 03:50:32;;;;;;;19.35;3.67;;;4.10;99.90;;;;;;5012708;28;20044;-79
2023/01/31 03:53:07;;;;;;;18.73;3.85;;;4.10;99.90;;;;;;5035182;28;20128;-79
2023/01/31 03:55:42;;;;;;;24.00;4.07;;;4.20;99.90;;;;;;5024749;28;20057;-79
2023/01/31 03:58:11;;;;;;;22.77;4.00;;;4.20;99.90;;;;;;5035959;28;20144;-79
2023/01/31 04:00:41;;;;;;;20.67;4.47;;;4.20;99.90;;;;;;5020965;28;20041;-79
2023/01/31 04:03:34;;;;;;;22.98;4.72;;;4.20;99.90;;;;;;5012543;28;20432;-79
2023/01/31 04:06:00;;;;;;;19.55;4.45;;;4.20;99.90;;;;;;5009405;28;20063;-79
2023/01/31 04:08:26;;;;;;;24.67;5.07;;;4.30;99.90;;;;;;4987561;28;20033;-79
2023/01/31 04:10:54;;;;;;;21.90;4.97;;;4.30;99.90;;;;;;5004659;28;20123;-78
2023/01/31 04:13:20;;;;;;;17.92;4.10;;;4.30;99.90;;;;;;5001655;28;20044;-79
2023/01/31 04:15:46;;;;;;;18.08;4.68;;;4.40;99.90;;;;;;5007814;28;20075;-78
2023/01/31 04:18:12;;;;;;;20.58;4.68;;;4.40;99.90;;;;;;5001646;28;20838;-79
2023/01/31 04:20:38;;;;;;;18.80;4.15;;;4.40;99.90;;;;;;5010900;28;20039;-79
2023/01/31 04:23:03;;;;;;;21.67;4.60;;;4.40;99.90;;;;;;5002512;28;20048;-78
2023/01/31 04:25:29;;;;;;;19.05;4.40;;;4.30;99.90;;;;;;5002046;28;20040;-79
2023/01/31 04:27:58;;;;;;;19.15;4.70;;;4.40;99.90;;;;;;5008437;28;20087;-78
2023/01/31 04:30:24;;;;;;;15.05;3.92;;;4.40;99.90;;;;;;5018123;28;20696;-79
2023/01/31 04:32:49;;;;;;;22.23;5.07;;;4.50;99.90;;;;;;5020168;28;20041;-79
2023/01/31 04:35:15;;;;;;;18.92;4.05;;;4.50;99.90;;;;;;5004334;28;20124;-79
2023/01/31 04:37:41;;;;;;;19.65;4.78;;;4.50;99.90;;;;;;5009560;28;20574;-78
2023/01/31 04:40:08;;;;;;;23.27;5.50;;;4.60;99.90;;;;;;5018070;28;20063;-78
2023/01/31 04:42:33;;;;;;;22.30;4.57;;;4.60;99.90;;;;;;4966745;28;20049;-78
2023/01/31 04:44:59;;;;;;;18.33;4.70;;;4.60;99.90;;;;;;5005485;28;20130;-78
2023/01/31 04:47:25;;;;;;;21.45;5.40;;;4.60;99.90;;;;;;5002176;28;20125;-77
2023/01/31 04:49:50;;;;;;;30.95;5.47;;;4.70;99.90;;;;;;4997611;28;20045;-77
2023/01/31 04:52:19;;;;;;;25.13;5.50;;;4.70;99.90;;;;;;5032856;28;20048;-77
2023/01/31 04:54:45;;;;;;;26.10;6.55;;;4.70;99.90;;;;;;5002590;28;20492;-77
2023/01/31 04:57:11;;;;;;;28.27;5.70;;;4.70;99.90;;;;;;5005394;28;20057;-77
2023/01/31 04:59:36;;;;;;;18.13;5.55;;;4.80;99.90;;;;;;5009648;28;20455;-78
2023/01/31 05:02:23;;;;;;;23.48;5.07;;;4.70;99.90;;;;;;5017405;28;20084;-80
2023/01/31 05:04:48;;;;;;;25.27;5.93;;;4.80;99.90;;;;;;5022567;28;20037;-80
2023/01/31 05:07:14;;;;;;;31.30;5.88;;;4.80;99.90;;;;;;5010552;28;20232;-70
2023/01/31 05:09:41;;;;;;;27.40;5.88;;;4.80;99.90;;;;;;4999154;28;20045;-71
2023/01/31 05:12:07;;;;;;;23.15;5.65;;;4.80;99.90;;;;;;5002763;28;20048;-71
2023/01/31 05:14:33;;;;;;;29.38;6.15;;;4.80;99.90;;;;;;5006521;28;20077;-71
2023/01/31 05:16:59;;;;;;;27.23;5.93;;;4.90;99.90;;;;;;4998970;28;20085;-71
2023/01/31 05:19:25;;;;;;;30.08;6.05;;;4.80;99.90;;;;;;4995988;28;20336;-71
2023/01/31 05:21:53;;;;;;;26.65;6.60;;;4.80;99.90;;;;;;5006913;28;20060;-71
2023/01/31 05:24:23;;;;;;;29.52;6.22;;;4.80;99.90;;;;;;5010573;28;20206;-71
2023/01/31 05:26:51;;;;;;;24.48;6.45;;;4.80;99.90;;;;;;5038269;28;20049;-68
2023/01/31 05:29:18;;;;;;;26.55;6.25;;;4.90;99.90;;;;;;5016023;28;20064;-77
2023/01/31 05:31:44;;;;;;;25.60;6.22;;;4.90;99.90;;;;;;5007673;28;20723;-80
2023/01/31 05:34:14;;;;;;;27.67;6.88;;;4.90;99.90;;;;;;5000962;28;20044;-77
2023/01/31 05:36:43;;;;;;;24.83;6.28;;;4.90;99.90;;;;;;5021032;28;20049;-77
2023/01/31 05:39:09;;;;;;;32.90;7.10;;;4.90;99.90;;;;;;5008678;28;20072;-77
2023/01/31 05:41:35;;;;;;;28.83;6.78;;;4.90;99.90;;;;;;5016943;28;20080;-79
2023/01/31 05:44:01;;;;;;;23.58;6.78;;;4.90;99.90;;;;;;5014542;28;20124;-79
2023/01/31 05:46:26;;;;;;;27.33;6.70;;;4.90;99.90;;;;;;5002773;28;20040;-78
2023/01/31 05:48:52;;;;;;;31.52;6.43;;;4.90;99.90;;;;;;4998695;28;20045;-78
2023/01/31 05:51:18;;;;;;;25.13;6.38;;;4.90;99.90;;;;;;4998540;28;20664;-78
2023/01/31 05:53:44;;;;;;;25.42;7.00;;;4.90;99.90;;;;;;5015698;28;20068;-79
2023/01/31 05:56:10;;;;;;;29.65;7.03;;;4.90;99.90;;;;;;5014729;28;20064;-78
2023/01/31 05:58:36;;;;;;;25.42;6.45;;;4.90;99.90;;;;;;4983724;28;20986;-78
2023/01/31 06:01:01;;;;;;;23.83;6.82;;;4.90;99.90;;;;;;4999783;28;20789;-78
2023/01/31 06:03:27;;;;;;;22.83;7.15;;;4.90;99.90;;;;;;4997686;28;20131;-80
2023/01/31 06:05:53;;;;;;;30.45;7.30;;;4.90;99.90;;;;;;5019258;28;20048;-79
2023/01/31 06:08:18;;;;;;;27.10;6.95;;;4.90;99.90;;;;;;4994795;28;20049;-79
2023/01/31 06:10:44;;;;;;;25.95;7.40;;;4.90;99.90;;;;;;5023602;28;20680;-78
2023/01/31 06:13:10;;;;;;;30.30;7.70;;;4.90;99.90;;;;;;5005140;28;20060;-78
2023/01/31 06:15:36;;;;;;;30.33;8.20;;;4.90;99.90;;;;;;5003319;28;20038;-78
2023/01/31 06:18:02;;;;;;;31.45;7.97;;;4.90;99.90;;;;;;4973914;28;20041;-79
2023/01/31 06:20:28;;;;;;;30.83;7.95;;;4.90;99.90;;;;;;5010262;28;20106;-79
2023/01/31 06:22:54;;;;;;;29.30;8.82;;;4.90;99.90;;;;;;5000754;28;21144;-78
2023/01/31 06:25:20;;;;;;;28.98;8.05;;;4.90;99.90;;;;;;4995900;28;20693;-78
2023/01/31 06:27:45;;;;;;;28.13;8.27;;;4.90;99.90;;;;;;5018334;28;20055;-78
2023/01/31 06:30:12;;;;;;;27.60;8.48;;;4.90;99.90;;;;;;5016085;28;20048;-77
2023/01/31 06:32:37;;;;;;;34.10;8.07;;;5.00;99.90;;;;;;5019315;28;20068;-78
2023/01/31 06:35:04;;;;;;;35.17;9.25;;;4.90;99.90;;;;;;5015772;28;20079;-78
2023/01/31 06:37:30;;;;;;;29.85;9.35;;;5.00;99.90;;;;;;4991854;28;20053;-79
2023/01/31 06:39:55;;;;;;;28.88;8.93;;;5.00;99.90;;;;;;5018241;28;20048;-78
2023/01/31 06:42:21;;;;;;;30.25;8.43;;;5.10;99.90;;;;;;5002097;28;20136;-78
2023/01/31 06:44:50;;;;;;;30.80;8.40;;;5.10;99.90;;;;;;5018888;28;20041;-78
2023/01/31 06:47:16;;;;;;;30.42;8.95;;;5.10;99.90;;;;;;4996344;28;20048;-77
2023/01/31 06:49:41;;;;;;;27.08;8.35;;;5.20;99.90;;;;;;4971062;28;20396;-79
2023/01/31 06:52:07;;;;;;;32.85;7.80;;;5.20;99.90;;;;;;5001734;28;20041;-77
2023/01/31 06:54:33;;;;;;;27.52;7.18;;;5.30;99.90;;;;;;4999009;28;20067;-75
2023/01/31 06:56:59;;;;;;;27.00;7.82;;;5.40;99.90;;;;;;5012281;28;20064;-74
2023/01/31 06:59:24;;;;;;;28.17;7.07;;;5.40;99.90;;;;;;4992128;28;20046;-74
2023/01/31 07:01:50;;;;;;;33.33;7.57;;;5.50;99.90;;;;;;5002753;28;20440;-74
2023/01/31 07:04:16;;;;;;;29.13;7.95;;;5.50;99.90;;;;;;5001529;28;20136;-74
2023/01/31 07:06:42;;;;;;;26.73;7.45;;;5.60;99.90;;;;;;5006468;28;20051;-73
2023/01/31 07:09:07;;;;;;;27.63;7.60;;;5.60;99.90;;;;;;5003806;28;20422;-76
2023/01/31 07:11:33;;;;;;;32.10;8.82;;;5.60;99.90;;;;;;4988743;28;20060;-76
2023/01/31 07:13:59;;;;;;;22.70;7.13;;;5.70;99.90;;;;;;5020858;28;20059;-76
2023/01/31 07:16:25;;;;;;;22.77;7.05;;;5.70;99.90;;;;;;4975596;28;20060;-77
2023/01/31 07:18:54;;;;;;;22.25;6.55;;;5.70;99.90;;;;;;5008980;28;20051;-76
2023/01/31 07:21:23;;;;;;;27.92;7.45;;;5.80;99.90;;;;;;4996749;28;20103;-76
2023/01/31 07:23:51;;;;;;;26.77;6.25;;;5.90;99.90;;;;;;5017179;28;20053;-77
2023/01/31 07:26:17;;;;;;;25.80;6.72;;;5.90;99.90;;;;;;5003568;28;20029;-77
2023/01/31 07:28:43;;;;;;;26.92;6.68;;;5.90;99.90;;;;;;5021644;28;20052;-77
2023/01/31 07:31:13;;;;;;;24.85;6.07;;;5.90;99.90;;;;;;4992460;28;20448;-79
2023/01/31 07:33:39;;;;;;;25.17;5.38;;;5.90;99.90;;;;;;5019448;28;20127;-76
2023/01/31 07:36:06;;;;;;;25.25;5.72;;;6.00;99.90;;;;;;4996548;28;20068;-77
2023/01/31 07:38:33;;;;;;;25.15;5.13;;;6.00;99.90;;;;;;4995606;28;20037;-78
2023/01/31 07:41:02;;;;;;;25.75;5.63;;;6.00;99.90;;;;;;5010536;28;20038;-76
2023/01/31 07:43:28;;;;;;;20.67;6.70;;;6.00;99.90;;;;;;5010289;28;20047;-78
2023/01/31 07:45:54;;;;;;;19.60;5.18;;;6.00;99.90;;;;;;5005150;28;20872;-76
2023/01/31 07:48:22;;;;;;;23.67;5.55;;;6.00;99.90;;;;;;5014041;28;20041;-77
2023/01/31 07:50:57;;;;;;;26.33;6.20;;;6.00;99.90;;;;;;5006537;28;20400;-76
2023/01/31 07:53:23;;;;;;;22.17;5.53;;;6.10;99.90;;;;;;4990113;28;20057;-76
2023/01/31 07:55:49;;;;;;;24.92;5.25;;;6.10;99.90;;;;;;5024094;28;20045;-76
2023/01/31 07:58:15;;;;;;;19.83;5.55;;;6.10;99.90;;;;;;5004528;28;20555;-76
2023/01/31 08:03:32;;;;;;;23.50;5.65;;;6.10;99.90;;;;;;5015365;28;20039;-76
2023/01/31 08:06:09;;;;;;;24.52;6.57;;;6.10;99.90;;;;;;5021909;28;20047;-76
2023/01/31 08:08:36;;;;;;;26.13;6.32;;;6.10;99.90;;;;;;5022936;28;20042;-77
2023/01/31 08:11:06;;;;;;;20.63;5.97;;;6.10;99.90;;;;;;5004068;28;20116;-77
2023/01/31 08:13:36;;;;;;;23.45;5.55;;;6.10;99.90;;;;;;5023352;28;20079;-77
2023/01/31 08:16:04;;;;;;;19.40;5.53;;;6.20;99.90;;;;;;5006619;28;20045;-74
2023/01/31 08:18:30;;;;;;;25.15;6.47;;;6.10;99.90;;;;;;4997750;28;20438;-74
2023/01/31 08:20:57;;;;;;;22.75;6.18;;;6.20;99.90;;;;;;4998334;28;20571;-76
2023/01/31 08:23:23;;;;;;;22.83;5.93;;;6.20;99.90;;;;;;5011487;28;20045;-74
2023/01/31 08:25:49;;;;;;;19.00;4.75;;;6.20;99.90;;;;;;4998902;28;20492;-73
2023/01/31 08:28:15;;;;;;;19.05;5.10;;;6.20;99.90;;;;;;5024045;28;20127;-74
2023/01/31 08:30:42;;;;;;;18.50;4.88;;;6.20;99.90;;;;;;5003135;28;20037;-75
2023/01/31 08:33:10;;;;;;;17.27;4.55;;;6.30;99.90;;;;;;5008503;28;20052;-75
2023/01/31 08:35:36;;;;;;;24.95;6.05;;;6.30;99.90;;;;;;5015946;28;20038;-78
2023/01/31 08:38:03;;;;;;;19.98;4.95;;;6.30;99.90;;;;;;5012621;28;20056;-77
2023/01/31 08:40:29;;;;;;;18.95;5.88;;;6.40;99.90;;;;;;5002908;28;20242;-74
2023/01/31 08:43:02;;;;;;;16.50;4.65;;;6.40;99.90;;;;;;4995454;28;20141;-76
2023/01/31 08:45:28;;;;;;;18.58;5.75;;;6.50;99.90;;;;;;5003206;28;20073;-74
2023/01/31 08:47:56;;;;;;;16.52;6.00;;;6.50;99.90;;;;;;5006891;28;20049;-74
2023/01/31 08:50:26;;;;;;;20.48;6.25;;;6.50;99.90;;;;;;4981937;28;20201;-75
2023/01/31 08:53:10;;;;;;;;;;;6.40;99.90;;;;;;5010363;28;20040;-74
2023/01/31 08:55:36;;;;;;;19.40;6.38;;;6.50;99.90;;;;;;5001807;28;20019;-74
2023/01/31 08:58:02;;;;;;;19.10;6.28;;;6.50;99.90;;;;;;5024156;28;20137;-77
2023/01/31 09:00:28;;;;;;;24.10;6.00;;;6.50;99.90;;;;;;5015212;28;20499;-74
2023/01/31 09:02:56;;;;;;;19.17;5.65;;;6.60;99.90;;;;;;5018546;28;20056;-76
2023/01/31 09:05:24;;;;;;;19.45;5.47;;;6.60;99.90;;;;;;4998613;28;20332;-75
2023/01/31 09:07:49;;;;;;;18.33;5.93;;;6.60;99.90;;;;;;5020577;28;20033;-76
2023/01/31 09:10:19;;;;;;;17.10;5.63;;;6.60;99.90;;;;;;5014401;28;20068;-79
2023/01/31 09:12:45;;;;;;;18.15;5.10;;;6.60;99.90;;;;;;5000433;28;20089;-77
2023/01/31 09:15:11;;;;;;;19.05;5.53;;;6.60;99.90;;;;;;5002771;28;20088;-76
2023/01/31 09:17:38;;;;;;;21.90;5.28;;;6.60;99.90;;;;;;4982198;28;20134;-77
2023/01/31 09:20:06;;;;;;;17.38;4.95;;;6.60;99.90;;;;;;5006720;28;20049;-75
2023/01/31 09:22:36;;;;;;;21.00;4.70;;;6.60;99.90;;;;;;5002574;28;20041;-75
2023/01/31 09:25:02;;;;;;;21.52;5.60;;;6.60;99.90;;;;;;5022645;28;20056;-77
2023/01/31 09:27:28;;;;;;;21.02;5.65;;;6.70;99.90;;;;;;4988151;28;20124;-76
2023/01/31 09:29:54;;;;;;;22.45;5.05;;;6.60;99.90;;;;;;4990699;28;20132;-75
2023/01/31 09:32:20;;;;;;;19.67;4.97;;;6.60;99.90;;;;;;5005258;28;20136;-74
2023/01/31 09:34:48;;;;;;;22.33;5.90;;;6.70;99.90;;;;;;5005729;28;20057;-74
2023/01/31 09:37:14;;;;;;;18.13;5.18;;;6.70;99.90;;;;;;5003651;28;20057;-74
2023/01/31 09:39:40;;;;;;;17.60;5.25;;;6.70;99.90;;;;;;5010861;28;20042;-73
2023/01/31 09:42:15;;;;;;;20.05;5.00;;;6.70;99.90;;;;;;5003896;28;20107;-75
2023/01/31 09:44:44;;;;;;;19.50;5.57;;;6.70;99.90;;;;;;5006678;28;20250;-74
2023/01/31 09:47:28;;;;;;;19.08;5.38;;;6.70;99.90;;;;;;5003218;28;20041;-76
2023/01/31 09:49:59;;;;;;;17.73;5.45;;;6.80;99.90;;;;;;5013124;28;20187;-73
2023/01/31 09:52:30;;;;;;;21.13;6.28;;;6.80;99.90;;;;;;5006177;28;20459;-75
2023/01/31 09:54:56;;;;;;;19.30;5.50;;;6.80;99.90;;;;;;5004369;28;20043;-74
2023/01/31 09:57:39;;;;;;;15.23;5.05;;;6.90;99.90;;;;;;5022483;28;20447;-75
2023/01/31 10:00:29;;;;;;;23.73;5.05;;;6.90;99.90;;;;;;5008253;28;20044;-75
2023/01/31 10:03:17;;;;;;;22.00;5.35;;;6.90;99.90;;;;;;5020090;28;20123;-74
2023/01/31 10:06:02;;;;;;;22.45;5.25;;;6.90;99.90;;;;;;4992413;28;20079;-74
2023/01/31 10:08:43;;;;;;;15.95;5.10;;;6.90;99.90;;;;;;5021677;28;20045;-75
2023/01/31 10:11:29;;;;;;;;;;;6.90;99.90;;;;;;5017319;28;20045;-75
2023/01/31 10:14:20;;;;;;;19.30;5.35;;;6.90;99.90;;;;;;5035310;28;19921;-74
2023/01/31 10:17:01;;;;;;;18.33;5.25;;;6.90;99.90;;;;;;5007330;28;20095;-75
2023/01/31 10:19:34;;;;;;;;;;;6.90;99.90;;;;;;5018933;28;20052;-79
2023/01/31 10:22:08;;;;;;;24.45;5.75;;;6.90;99.90;;;;;;5017572;28;20271;-75
2023/01/31 10:24:48;;;;;;;22.40;5.50;;;7.00;99.90;;;;;;5003802;28;20656;-73
2023/01/31 10:27:29;;;;;;;26.63;5.65;;;7.00;99.90;;;;;;5008461;28;20415;-73
2023/01/31 10:29:58;;;;;;;21.27;5.22;;;7.00;99.90;;;;;;5015990;28;20038;-73
2023/01/31 10:32:47;;;;;;;17.52;5.28;;;7.00;99.90;;;;;;4985541;28;20072;-72
2023/01/31 10:35:31;;;;;;;20.38;5.05;;;7.10;99.90;;;;;;5003266;28;20350;-74
2023/01/31 10:38:03;;;;;;;21.20;5.45;;;7.10;99.90;;;;;;5019239;28;20049;-73
2023/01/31 10:40:32;;;;;;;23.90;5.65;;;7.10;99.90;;;;;;5019589;28;20059;-73
2023/01/31 10:43:11;;;;;;;25.25;6.15;;;7.10;99.90;;;;;;5014670;28;20073;-74
2023/01/31 10:45:37;;;;;;;19.27;5.18;;;7.10;99.90;;;;;;5002680;28;20083;-74
2023/01/31 10:48:21;;;;;;;20.15;5.72;;;7.10;99.90;;;;;;4987993;28;20135;-75
2023/01/31 10:51:05;;;;;;;20.08;5.38;;;7.20;99.90;;;;;;4986934;28;20179;-74
2023/01/31 10:54:03;;;;;;;18.67;5.97;;;7.20;99.90;;;;;;4995791;28;20046;-74
2023/01/31 10:56:41;;;;;;;21.50;6.55;;;7.20;99.90;;;;;;4978225;28;20061;-74
2023/01/31 10:59:19;;;;;;;21.17;6.10;;;7.20;99.90;;;;;;5005744;28;20045;-74
2023/01/31 11:01:45;;;;;;;22.10;6.55;;;7.20;99.90;;;;;;5003476;28;20302;-75
2023/01/31 11:04:33;;;;;;;27.00;7.32;;;7.10;99.90;;;;;;4989232;28;20274;-75
2023/01/31 11:07:00;;;;;;;24.27;7.32;;;7.10;99.90;;;;;;5027419;28;20510;-74
2023/01/31 11:09:34;;;;;;;27.05;7.30;;;7.10;99.90;;;;;;4996063;28;20064;-74
2023/01/31 11:12:02;;;;;;;23.30;6.50;;;7.10;99.90;;;;;;5021978;28;20277;-74
2023/01/31 11:14:31;;;;;;;22.13;7.68;;;7.10;99.90;;;;;;5011772;28;20073;-74
2023/01/31 11:17:19;;;;;;;27.42;8.05;;;7.10;99.90;;;;;;5019311;28;20049;-75
2023/01/31 11:19:54;;;;;;;22.23;7.53;;;7.10;99.90;;;;;;5022649;28;20360;-74
2023/01/31 11:22:30;;;;;;;20.00;6.78;;;7.10;99.90;;;;;;5006069;28;20052;-74
2023/01/31 11:24:58;;;;;;;22.58;6.45;;;7.10;99.90;;;;;;5010151;28;20049;-76
2023/01/31 11:27:39;;;;;;;27.00;7.03;;;7.10;99.90;;;;;;5010612;28;20144;-79
2023/01/31 11:30:39;;;;;;;22.08;6.15;;;7.10;99.90;;;;;;5017488;28;20056;-78
2023/01/31 11:33:05;;;;;;;23.15;6.30;;;7.10;99.90;;;;;;5012540;28;20523;-76
2023/01/31 11:35:33;;;;;;;23.45;6.43;;;7.10;99.90;;;;;;4996298;28;20045;-76
2023/01/31 11:38:11;;;;;;;25.38;5.90;;;7.10;99.90;;;;;;5003544;28;20041;-76
2023/01/31 11:40:39;;;;;;;21.42;6.15;;;7.20;99.90;;;;;;5000843;28;20062;-77
2023/01/31 11:43:25;;;;;;;26.45;6.70;;;7.10;99.90;;;;;;5009569;28;20910;-76
2023/01/31 11:46:00;;;;;;;28.42;6.78;;;7.20;99.90;;;;;;5003863;28;20045;-76
2023/01/31 11:48:29;;;;;;;24.23;6.15;;;7.10;99.90;;;;;;5019765;28;20507;-76
2023/01/31 11:51:01;;;;;;;27.27;6.53;;;7.20;99.90;;;;;;5017987;28;20412;-76
2023/01/31 11:53:37;;;;;;;26.08;7.03;;;7.10;99.90;;;;;;5002596;28;20135;-77
2023/01/31 11:56:22;;;;;;;22.92;5.18;;;7.20;99.90;;;;;;5017113;28;20056;-76
2023/01/31 11:58:52;;;;;;;24.08;4.97;;;7.10;99.90;;;;;;5016861;28;20041;-76
2023/01/31 12:01:21;;;;;;;19.35;5.38;;;7.20;99.90;;;;;;5023715;28;20052;-76
2023/01/31 12:04:02;;;;;;;21.73;5.20;;;7.20;99.90;;;;;;5021586;28;20047;-76
2023/01/31 12:06:36;;;;;;;22.65;5.38;;;7.20;99.90;;;;;;5023902;28;20068;-74
2023/01/31 12:09:16;;;;;;;21.80;5.20;;;7.30;99.90;;;;;;5022666;28;20509;-74
2023/01/31 12:11:50;;;;;;;20.42;5.68;;;7.40;99.90;;;;;;5006446;28;20309;-74
2023/01/31 12:14:18;;;;;;;26.58;5.45;;;7.40;99.90;;;;;;5023062;28;20050;-74
2023/01/31 12:16:46;;;;;;;24.02;5.25;;;7.40;99.90;;;;;;5021721;28;20346;-74
2023/01/31 12:19:12;;;;;;;22.77;5.55;;;7.40;99.90;;;;;;5004018;28;20045;-75
2023/01/31 12:21:47;;;;;;;22.35;5.07;;;7.50;99.90;;;;;;4999085;28;20308;-74
2023/01/31 12:24:38;;;;;;;19.70;4.90;;;7.60;99.90;;;;;;5002090;28;20361;-74
2023/01/31 12:27:41;;;;;;;20.08;4.68;;;7.70;99.90;;;;;;4996822;28;20047;-74
2023/01/31 12:30:20;;;;;;;16.13;4.90;;;7.70;99.90;;;;;;5020505;28;20041;-74
2023/01/31 12:33:10;;;;;;;20.38;5.85;;;7.80;99.90;;;;;;5019832;28;20688;-75
2023/01/31 12:35:59;;;;;;;18.65;4.50;;;7.90;99.90;;;;;;5007909;28;20349;-74
2023/01/31 12:38:43;;;;;;;20.95;5.38;;;7.90;99.90;;;;;;5007773;28;20049;-74
2023/01/31 12:41:31;;;;;;;17.75;4.68;;;7.90;99.90;;;;;;5004989;28;20135;-77
2023/01/31 12:44:08;;;;;;;19.35;4.38;;;8.00;99.90;;;;;;5009194;28;20535;-77
2023/01/31 12:46:46;;;;;;;21.10;5.20;;;8.00;99.90;;;;;;5035286;28;20202;-77
2023/01/31 12:49:43;;;;;;;17.67;4.22;;;8.10;99.90;;;;;;5007237;28;20111;-77
2023/01/31 12:52:50;;;;;;;18.80;4.70;;;8.10;99.90;;;;;;5012292;28;20040;-77
2023/01/31 12:55:28;;;;;;;18.50;4.25;;;8.20;99.90;;;;;;5006256;28;20049;-77
2023/01/31 12:58:16;;;;;;;18.58;4.85;;;8.20;99.90;;;;;;5024725;28;20072;-77
2023/01/31 13:00:47;;;;;;;19.55;4.80;;;8.20;99.90;;;;;;5011635;28;20246;-78
2023/01/31 13:03:37;;;;;;;17.08;4.35;;;8.30;99.90;;;;;;4990716;28;20388;-78
2023/01/31 13:06:14;;;;;;;17.42;4.22;;;8.30;99.90;;;;;;4996962;28;20875;-77
2023/01/31 13:08:50;;;;;;;16.98;4.28;;;8.30;99.90;;;;;;5014425;28;20057;-79
2023/01/31 13:11:33;;;;;;;17.13;4.10;;;8.40;99.90;;;;;;4991803;28;20122;-77
2023/01/31 13:14:12;;;;;;;16.20;4.43;;;8.60;99.90;;;;;;5004476;28;20594;-78
2023/01/31 13:16:42;;;;;;;17.58;3.72;;;8.60;99.90;;;;;;4997709;28;20042;-77
2023/01/31 13:19:20;;;;;;;16.75;4.20;;;8.60;99.90;;;;;;5010146;28;20524;-77
2023/01/31 13:21:51;;;;;;;11.93;3.42;;;8.70;99.90;;;;;;5016962;28;20048;-78